Time;durP1;ratioP1;P1;durP2;ratioP2;P2;SDS_P1;SDS_P2;PMS_P1;PMS_P2;Temp;Humidity;BMP_temperature;BMP_pressure;BME280_temperature;BME280_humidity;BME280_pressure;Samples;Min_cycle;Max_cycle;Signal;HPM_P1;HPM_P2
2023/08/22 00:02:00;;;;;;;1.40;1.20;;;25.70;99.90;;;;;;5117989;28;20420;-65
2023/08/22 00:04:27;;;;;;;2.10;1.30;;;25.60;1.00;;;;;;5118761;28;20420;-65
2023/08/22 00:06:54;;;;;;;2.50;1.40;;;25.60;1.00;;;;;;5118101;28;20409;-64
2023/08/22 00:09:21;;;;;;;2.20;1.40;;;25.50;1.00;;;;;;5118593;28;20416;-65
2023/08/22 00:11:49;;;;;;;2.10;1.20;;;25.50;15.80;;;;;;5118171;28;20420;-66
2023/08/22 00:14:16;;;;;;;1.70;1.10;;;25.50;77.60;;;;;;5116448;28;20700;-66
2023/08/22 00:16:43;;;;;;;2.40;1.30;;;25.50;6.60;;;;;;5116745;28;20434;-66
2023/08/22 00:19:10;;;;;;;1.70;1.30;;;25.50;1.00;;;;;;5116965;28;20424;-65
2023/08/22 00:21:37;;;;;;;1.40;1.10;;;25.50;1.00;;;;;;5116846;28;20416;-65
2023/08/22 00:24:05;;;;;;;1.50;1.10;;;25.40;1.00;;;;;;5117259;28;20426;-65
2023/08/22 00:26:32;;;;;;;2.05;1.10;;;25.40;99.90;;;;;;5116675;28;20423;-65
2023/08/22 00:29:00;;;;;;;2.10;1.10;;;25.40;99.90;;;;;;5115899;28;20505;-65
2023/08/22 00:31:27;;;;;;;1.52;1.20;;;25.40;99.90;;;;;;5116323;28;20412;-64
2023/08/22 00:33:54;;;;;;;1.70;1.20;;;25.40;99.90;;;;;;5116412;28;20430;-64
2023/08/22 00:36:21;;;;;;;1.52;1.10;;;25.30;99.90;;;;;;5117908;28;20435;-65
2023/08/22 00:38:48;;;;;;;1.60;1.10;;;25.30;99.90;;;;;;5118535;28;20424;-65
2023/08/22 00:41:16;;;;;;;2.90;1.10;;;25.30;99.90;;;;;;5118870;28;20419;-65
2023/08/22 00:43:43;;;;;;;1.50;1.10;;;25.30;99.90;;;;;;5118261;28;20743;-64
2023/08/22 00:46:12;;;;;;;1.67;1.20;;;25.20;99.90;;;;;;5117264;28;20420;-64
2023/08/22 00:48:40;;;;;;;2.20;1.20;;;25.20;99.90;;;;;;5117422;28;20489;-65
2023/08/22 00:51:07;;;;;;;1.60;1.10;;;25.20;99.90;;;;;;5116838;28;20419;-65
2023/08/22 00:53:35;;;;;;;2.90;1.20;;;25.20;99.90;;;;;;5117157;28;20420;-65
2023/08/22 00:56:02;;;;;;;2.00;1.30;;;25.20;99.90;;;;;;5117657;28;20424;-65
2023/08/22 00:58:29;;;;;;;1.63;1.20;;;25.20;99.90;;;;;;5118100;28;20442;-64
2023/08/22 01:00:57;;;;;;;1.20;1.00;;;25.20;99.90;;;;;;5117461;28;20424;-64
2023/08/22 01:03:25;;;;;;;1.60;1.00;;;25.20;99.90;;;;;;5117154;28;20784;-65
2023/08/22 01:05:59;;;;;;;1.50;1.30;;;25.10;99.90;;;;;;5117246;28;20712;-65
2023/08/22 01:08:31;;;;;;;1.80;1.20;;;25.10;99.90;;;;;;5117403;28;20840;-65
2023/08/22 01:11:09;;;;;;;2.00;1.00;;;25.10;99.90;;;;;;5116150;28;20446;-64
2023/08/22 01:13:40;;;;;;;1.40;1.10;;;25.10;99.90;;;;;;5117880;28;20719;-64
2023/08/22 01:16:08;;;;;;;1.50;1.10;;;25.10;99.90;;;;;;5117662;28;20417;-64
2023/08/22 01:18:40;;;;;;;1.92;1.00;;;25.00;99.90;;;;;;5116797;28;20415;-65
2023/08/22 01:21:07;;;;;;;1.40;1.10;;;25.00;99.90;;;;;;5117461;28;20435;-65
2023/08/22 01:23:36;;;;;;;1.15;1.00;;;25.00;1.00;;;;;;5117333;28;20428;-65
2023/08/22 01:26:03;;;;;;;3.30;1.10;;;25.00;1.00;;;;;;5116986;28;20412;-65
2023/08/22 01:28:40;;;;;;;1.80;1.20;;;24.90;1.00;;;;;;5117211;28;20890;-65
2023/08/22 01:31:16;;;;;;;3.80;1.20;;;24.90;1.00;;;;;;5117527;28;20420;-65
2023/08/22 01:33:49;;;;;;;1.40;1.10;;;24.90;1.00;;;;;;5117199;28;21045;-64
2023/08/22 01:36:19;;;;;;;1.47;1.03;;;25.00;1.00;;;;;;5116987;28;20430;-64
2023/08/22 01:38:50;;;;;;;4.90;1.20;;;25.10;1.00;;;;;;5116435;28;20417;-65
2023/08/22 01:41:20;;;;;;;1.50;1.10;;;25.10;99.90;;;;;;5116132;28;20518;-65
2023/08/22 01:43:47;;;;;;;1.40;1.00;;;25.10;99.90;;;;;;5116147;28;20532;-65
2023/08/22 01:46:14;;;;;;;1.70;1.10;;;25.10;99.90;;;;;;5116456;28;20835;-64
2023/08/22 01:48:41;;;;;;;1.90;1.20;;;25.00;1.00;;;;;;5116264;28;20419;-65
2023/08/22 01:51:08;;;;;;;1.75;1.00;;;25.10;99.90;;;;;;5116462;28;20557;-65
2023/08/22 01:53:35;;;;;;;2.60;1.10;;;25.00;99.90;;;;;;5116324;28;20497;-65
2023/08/22 01:56:04;;;;;;;1.38;1.00;;;25.00;1.00;;;;;;5116258;28;20455;-65
2023/08/22 01:58:31;;;;;;;1.98;1.10;;;25.10;1.00;;;;;;5116423;28;20423;-64
2023/08/22 02:00:58;;;;;;;1.90;1.15;;;25.00;99.90;;;;;;5115474;28;20408;-64
2023/08/22 02:03:26;;;;;;;1.80;1.10;;;25.00;99.90;;;;;;5116122;28;20405;-65
2023/08/22 02:05:54;;;;;;;2.50;1.10;;;24.90;1.00;;;;;;5116284;28;20416;-65
2023/08/22 02:08:21;;;;;;;1.30;1.10;;;24.80;1.00;;;;;;5116447;28;20420;-65
2023/08/22 02:10:48;;;;;;;3.00;1.10;;;24.80;1.00;;;;;;5116298;28;20427;-65
2023/08/22 02:13:16;;;;;;;2.30;1.00;;;24.80;1.00;;;;;;5116235;28;20427;-64
2023/08/22 02:15:43;;;;;;;1.52;1.20;;;24.80;1.00;;;;;;5116694;28;20416;-65
2023/08/22 02:18:10;;;;;;;1.85;1.00;;;24.80;1.00;;;;;;5116150;28;20416;-65
2023/08/22 02:20:37;;;;;;;1.80;1.10;;;24.80;1.00;;;;;;5115601;28;20866;-65
2023/08/22 02:23:05;;;;;;;1.80;1.10;;;24.80;1.00;;;;;;5115886;28;20420;-64
2023/08/22 02:25:33;;;;;;;1.70;1.10;;;24.80;1.00;;;;;;5115554;28;20866;-65
2023/08/22 02:28:01;;;;;;;2.28;1.15;;;24.80;1.00;;;;;;5115917;28;20407;-64
2023/08/22 02:30:29;;;;;;;1.70;1.20;;;24.70;1.00;;;;;;5115932;28;20730;-65
2023/08/22 02:32:56;;;;;;;2.10;1.20;;;24.60;1.00;;;;;;5116150;28;20437;-65
2023/08/22 02:35:24;;;;;;;1.70;1.20;;;24.60;86.00;;;;;;5116113;28;20453;-65
2023/08/22 02:37:51;;;;;;;1.50;1.20;;;24.60;4.60;;;;;;5115662;28;20884;-64
2023/08/22 02:40:18;;;;;;;2.20;1.20;;;24.60;59.20;;;;;;5115670;28;20431;-65
2023/08/22 02:42:45;;;;;;;2.15;1.00;;;24.70;1.00;;;;;;5116040;28;20412;-64
2023/08/22 02:45:12;;;;;;;1.80;1.33;;;24.60;1.00;;;;;;5116334;28;20716;-65
2023/08/22 02:47:42;;;;;;;1.50;1.10;;;24.60;1.00;;;;;;5115360;28;20512;-65
2023/08/22 02:50:09;;;;;;;1.90;1.10;;;24.50;1.00;;;;;;5115080;28;20431;-64
2023/08/22 02:52:36;;;;;;;1.70;1.17;;;24.50;5.90;;;;;;5114433;28;20858;-65
2023/08/22 02:55:04;;;;;;;1.45;1.08;;;24.40;99.90;;;;;;5115562;28;20903;-64
2023/08/22 02:57:31;;;;;;;1.80;1.20;;;24.40;99.90;;;;;;5115671;28;20428;-65
2023/08/22 02:59:58;;;;;;;1.67;1.10;;;24.40;99.90;;;;;;5115606;28;20425;-65
2023/08/22 03:02:25;;;;;;;1.70;1.20;;;24.40;99.90;;;;;;5115843;28;20424;-64
2023/08/22 03:04:54;;;;;;;1.63;1.10;;;24.30;99.90;;;;;;5115643;28;20747;-64
2023/08/22 03:07:21;;;;;;;1.45;1.20;;;24.30;99.90;;;;;;5115892;28;20850;-64
2023/08/22 03:09:48;;;;;;;1.60;1.10;;;24.30;99.90;;;;;;5115275;28;20764;-65
2023/08/22 03:12:15;;;;;;;1.55;1.10;;;24.20;99.90;;;;;;5115600;28;20417;-64
2023/08/22 03:14:43;;;;;;;2.08;1.10;;;24.20;99.90;;;;;;5115049;28;20503;-65
2023/08/22 03:17:10;;;;;;;1.90;1.10;;;24.10;99.90;;;;;;5115141;28;20436;-64
2023/08/22 03:19:37;;;;;;;1.63;1.20;;;24.00;99.90;;;;;;5114452;28;20420;-64
2023/08/22 03:22:06;;;;;;;1.70;1.10;;;24.00;99.90;;;;;;5114439;28;20715;-64
2023/08/22 03:24:33;;;;;;;1.30;1.10;;;24.00;99.90;;;;;;5115459;28;20481;-65
2023/08/22 03:27:00;;;;;;;1.35;1.10;;;23.90;99.90;;;;;;5115772;28;20420;-65
2023/08/22 03:29:27;;;;;;;1.70;1.20;;;23.90;99.90;;;;;;5114952;28;20839;-64
2023/08/22 03:31:54;;;;;;;3.50;1.10;;;23.90;99.90;;;;;;5114397;28;20430;-64
2023/08/22 03:34:21;;;;;;;2.00;1.20;;;23.90;99.90;;;;;;5116952;28;20426;-64
2023/08/22 03:36:48;;;;;;;2.28;1.20;;;23.90;99.90;;;;;;5118132;28;20424;-65
2023/08/22 03:39:17;;;;;;;2.97;1.10;;;24.00;99.90;;;;;;5118674;28;20412;-65
2023/08/22 03:41:44;;;;;;;2.45;1.15;;;24.00;99.90;;;;;;5119402;28;20430;-65
2023/08/22 03:44:11;;;;;;;2.30;1.00;;;24.00;99.90;;;;;;5119461;28;20420;-64
2023/08/22 03:46:38;;;;;;;1.40;1.20;;;24.00;99.90;;;;;;5119682;28;20416;-64
2023/08/22 03:49:05;;;;;;;2.60;1.30;;;23.90;99.90;;;;;;5119040;28;20709;-64
2023/08/22 03:51:32;;;;;;;1.80;1.10;;;23.90;99.90;;;;;;5118866;28;20978;-65
2023/08/22 03:53:59;;;;;;;2.25;1.20;;;23.90;99.90;;;;;;5118608;28;20502;-65
2023/08/22 03:56:28;;;;;;;1.45;1.10;;;24.00;1.00;;;;;;5118807;28;20412;-65
2023/08/22 03:58:55;;;;;;;1.88;1.08;;;24.00;99.90;;;;;;5118446;28;20823;-63
2023/08/22 04:01:22;;;;;;;1.60;1.10;;;24.00;99.90;;;;;;5119147;28;20424;-62
2023/08/22 04:03:49;;;;;;;2.13;1.10;;;24.00;99.90;;;;;;5118645;28;20416;-61
2023/08/22 04:06:16;;;;;;;1.40;1.10;;;24.00;99.90;;;;;;5118627;28;20415;-62
2023/08/22 04:08:43;;;;;;;1.70;1.10;;;24.00;1.00;;;;;;5118333;28;20427;-62
2023/08/22 04:11:10;;;;;;;2.03;1.20;;;24.10;99.90;;;;;;5118806;28;20420;-62
2023/08/22 04:13:39;;;;;;;1.60;1.00;;;24.10;99.90;;;;;;5118684;28;20424;-62
2023/08/22 04:16:06;;;;;;;1.38;1.02;;;24.10;99.90;;;;;;5118734;28;20416;-62
2023/08/22 04:18:33;;;;;;;2.10;1.00;;;24.10;99.90;;;;;;5118484;28;20431;-62
2023/08/22 04:21:00;;;;;;;1.40;1.10;;;24.10;99.90;;;;;;5118704;28;20673;-62
2023/08/22 04:23:27;;;;;;;1.90;1.10;;;24.10;99.90;;;;;;5118589;28;20708;-62
2023/08/22 04:25:54;;;;;;;2.03;1.15;;;24.00;99.90;;;;;;5118425;28;20420;-62
2023/08/22 04:28:21;;;;;;;1.73;1.10;;;24.00;99.90;;;;;;5118116;28;20420;-62
2023/08/22 04:30:50;;;;;;;2.00;1.10;;;24.00;99.90;;;;;;5117303;28;20423;-62
2023/08/22 04:33:17;;;;;;;1.35;1.10;;;24.00;99.90;;;;;;5116990;28;20420;-62
2023/08/22 04:35:44;;;;;;;1.90;1.00;;;24.00;99.90;;;;;;5117795;28;20552;-62
2023/08/22 04:38:11;;;;;;;1.50;1.08;;;24.00;99.90;;;;;;5117763;28;20432;-62
2023/08/22 04:40:38;;;;;;;1.30;0.90;;;24.00;99.90;;;;;;5116467;28;20420;-62
2023/08/22 04:43:05;;;;;;;2.55;1.15;;;24.10;99.90;;;;;;5115741;28;20412;-62
2023/08/22 04:45:32;;;;;;;2.80;1.10;;;24.10;99.90;;;;;;5116275;28;20419;-62
2023/08/22 04:48:01;;;;;;;3.00;1.05;;;24.00;99.90;;;;;;5116981;28;20428;-61
2023/08/22 04:50:29;;;;;;;2.50;1.20;;;23.90;99.90;;;;;;5116217;28;20427;-61
2023/08/22 04:52:56;;;;;;;1.90;1.20;;;23.90;99.90;;;;;;5115840;28;20416;-63
2023/08/22 04:55:23;;;;;;;3.67;1.20;;;23.80;99.90;;;;;;5116958;28;20447;-61
2023/08/22 04:57:50;;;;;;;2.60;1.20;;;23.80;1.00;;;;;;5118126;28;20489;-62
2023/08/22 05:00:18;;;;;;;1.30;1.00;;;23.80;1.00;;;;;;5116672;28;20412;-62
2023/08/22 05:02:45;;;;;;;1.60;1.20;;;23.80;1.00;;;;;;5115013;28;20458;-61
2023/08/22 05:05:14;;;;;;;1.70;1.20;;;23.80;1.00;;;;;;5115248;28;20420;-62
2023/08/22 05:07:41;;;;;;;2.05;1.30;;;23.80;1.00;;;;;;5116453;28;20813;-62
2023/08/22 05:10:12;;;;;;;1.70;1.10;;;23.80;1.00;;;;;;5115747;28;20408;-62
2023/08/22 05:12:39;;;;;;;2.30;1.30;;;23.80;1.00;;;;;;5115004;28;20421;-61
2023/08/22 05:15:07;;;;;;;1.63;1.20;;;23.70;1.00;;;;;;5115344;28;20747;-61
2023/08/22 05:17:34;;;;;;;2.20;1.30;;;23.80;1.00;;;;;;5115890;28;20432;-61
2023/08/22 05:20:01;;;;;;;1.50;1.20;;;23.80;1.00;;;;;;5117140;28;20724;-61
2023/08/22 05:22:29;;;;;;;2.95;1.40;;;23.80;1.00;;;;;;5116719;28;20416;-62
2023/08/22 05:24:56;;;;;;;1.40;1.20;;;23.80;1.00;;;;;;5115901;28;20447;-62
2023/08/22 05:27:23;;;;;;;1.55;1.20;;;23.80;1.00;;;;;;5115821;28;20424;-63
2023/08/22 05:29:51;;;;;;;3.40;1.20;;;23.90;1.00;;;;;;5116505;28;20432;-62
2023/08/22 05:32:18;;;;;;;3.40;1.17;;;23.90;1.00;;;;;;5115676;28;20435;-62
2023/08/22 05:34:45;;;;;;;2.85;1.10;;;23.90;1.00;;;;;;5115763;28;20443;-62
2023/08/22 05:37:12;;;;;;;2.60;1.10;;;23.90;1.00;;;;;;5115210;28;20448;-62
2023/08/22 05:39:40;;;;;;;2.50;1.10;;;23.90;1.00;;;;;;5114534;28;20828;-62
2023/08/22 05:42:08;;;;;;;1.58;1.17;;;24.00;99.90;;;;;;5115863;28;20424;-62
2023/08/22 05:44:35;;;;;;;1.90;1.27;;;24.00;99.90;;;;;;5115405;28;20424;-62
2023/08/22 05:47:04;;;;;;;1.60;1.20;;;24.00;99.90;;;;;;5113623;28;20518;-62
2023/08/22 05:49:31;;;;;;;1.85;1.10;;;24.00;1.00;;;;;;5113982;28;20491;-65
2023/08/22 05:52:02;;;;;;;1.60;1.40;;;24.10;99.90;;;;;;5114280;28;20802;-62
2023/08/22 05:54:29;;;;;;;1.60;1.10;;;24.20;99.90;;;;;;5115729;28;20420;-62
2023/08/22 05:56:58;;;;;;;2.00;1.20;;;24.20;99.90;;;;;;5114640;28;20511;-62
2023/08/22 05:59:25;;;;;;;2.10;1.20;;;24.20;99.90;;;;;;5115151;28;20731;-62
2023/08/22 06:01:52;;;;;;;2.10;1.20;;;24.20;99.90;;;;;;5114172;28;20858;-62
2023/08/22 06:04:20;;;;;;;1.40;1.10;;;24.30;99.90;;;;;;5115695;28;20823;-61
2023/08/22 06:06:47;;;;;;;1.80;1.30;;;24.40;99.90;;;;;;5114123;28;20726;-61
2023/08/22 06:09:14;;;;;;;2.20;1.20;;;24.30;99.90;;;;;;5113915;28;20420;-61
2023/08/22 06:11:41;;;;;;;2.00;1.20;;;24.30;99.90;;;;;;5112996;28;20473;-61
2023/08/22 06:14:09;;;;;;;3.60;1.30;;;24.30;99.90;;;;;;5112602;28;20423;-61
2023/08/22 06:16:36;;;;;;;1.80;1.10;;;24.40;99.90;;;;;;5114086;28;20416;-62
2023/08/22 06:19:03;;;;;;;1.50;1.00;;;24.40;91.10;;;;;;5103052;28;20424;-61
2023/08/22 06:21:30;;;;;;;1.70;1.10;;;24.50;58.70;;;;;;5112756;28;20510;-61
2023/08/22 06:23:58;;;;;;;2.80;1.10;;;24.50;34.10;;;;;;5113096;28;20412;-62
2023/08/22 06:26:25;;;;;;;2.20;1.20;;;24.50;1.00;;;;;;5112980;28;20522;-61
2023/08/22 06:28:52;;;;;;;2.60;1.10;;;24.50;1.00;;;;;;5113241;28;20404;-61
2023/08/22 06:31:20;;;;;;;2.20;1.10;;;24.50;1.00;;;;;;5113835;28;20440;-61
2023/08/22 06:33:47;;;;;;;1.55;1.20;;;24.50;43.30;;;;;;5112887;28;20591;-60
2023/08/22 06:36:14;;;;;;;1.80;1.20;;;24.60;99.90;;;;;;5114601;28;20419;-61
2023/08/22 06:38:42;;;;;;;2.40;1.20;;;24.70;99.00;;;;;;5114268;28;20443;-62
2023/08/22 06:41:09;;;;;;;3.00;1.20;;;24.80;1.00;;;;;;5115009;27;20622;-61
2023/08/22 06:43:36;;;;;;;1.90;1.20;;;24.80;1.00;;;;;;5133002;27;20528;-62
2023/08/22 06:46:03;;;;;;;1.40;1.10;;;24.90;1.00;;;;;;5134802;27;20691;-62
2023/08/22 06:48:31;;;;;;;1.40;1.10;;;25.00;99.90;;;;;;5134994;27;20407;-63
2023/08/22 06:50:58;;;;;;;1.60;1.20;;;25.00;99.90;;;;;;5133568;27;20425;-62
2023/08/22 06:53:25;;;;;;;1.42;1.10;;;25.10;99.90;;;;;;5134178;27;20421;-62
2023/08/22 06:55:52;;;;;;;1.20;1.00;;;25.20;1.00;;;;;;5134405;27;20419;-62
2023/08/22 06:58:20;;;;;;;1.48;1.15;;;25.20;1.00;;;;;;5133289;27;20422;-63
2023/08/22 07:00:47;;;;;;;1.67;1.10;;;25.30;1.00;;;;;;5132840;27;20572;-62
2023/08/22 07:03:14;;;;;;;1.30;1.10;;;25.50;1.00;;;;;;5134623;27;20429;-62
2023/08/22 07:05:42;;;;;;;1.57;1.00;;;25.50;99.90;;;;;;5133581;27;20730;-62
2023/08/22 07:08:09;;;;;;;1.95;1.00;;;25.60;1.00;;;;;;5133588;27;20417;-62
2023/08/22 07:10:36;;;;;;;1.50;1.10;;;25.70;1.00;;;;;;5134627;27;20494;-62
2023/08/22 07:13:04;;;;;;;1.80;0.90;;;25.80;1.00;;;;;;5135119;27;20407;-60
2023/08/22 07:15:31;;;;;;;1.92;1.00;;;25.80;99.90;;;;;;5135069;27;20411;-63
2023/08/22 07:17:58;;;;;;;1.50;1.00;;;25.90;74.70;;;;;;5135158;27;20427;-61
2023/08/22 07:20:25;;;;;;;1.20;1.00;;;25.90;1.00;;;;;;5134938;27;20425;-62
2023/08/22 07:22:54;;;;;;;1.40;1.10;;;26.10;1.00;;;;;;5134420;27;20418;-61
2023/08/22 07:25:21;;;;;;;1.67;1.10;;;26.20;1.00;;;;;;5133787;27;20730;-61
2023/08/22 07:27:48;;;;;;;3.05;1.00;;;26.30;99.90;;;;;;5123660;27;20399;-61
2023/08/22 07:30:15;;;;;;;1.42;1.00;;;26.40;99.90;;;;;;5133942;28;20837;-61
2023/08/22 07:32:42;;;;;;;1.40;1.00;;;26.50;73.20;;;;;;5134692;28;20418;-61
2023/08/22 07:35:09;;;;;;;2.10;1.10;;;26.60;1.00;;;;;;5133316;28;20422;-60
2023/08/22 07:37:36;;;;;;;1.40;1.10;;;26.70;1.00;;;;;;5132491;28;20810;-60
2023/08/22 07:40:06;;;;;;;1.70;1.00;;;26.80;1.00;;;;;;5133994;28;20818;-60
2023/08/22 07:42:35;;;;;;;1.30;1.00;;;26.80;1.00;;;;;;5131863;28;20410;-61
2023/08/22 07:45:03;;;;;;;1.50;1.10;;;26.90;99.90;;;;;;5133491;28;20426;-61
2023/08/22 07:47:30;;;;;;;1.50;1.00;;;27.00;99.90;;;;;;5129686;28;20422;-61
2023/08/22 07:49:57;;;;;;;1.30;1.00;;;27.00;99.90;;;;;;5131969;28;20422;-60
2023/08/22 07:52:25;;;;;;;1.30;1.00;;;27.10;99.90;;;;;;5132756;28;20423;-60
2023/08/22 07:54:52;;;;;;;1.30;0.90;;;27.10;99.90;;;;;;5132216;28;20415;-60
2023/08/22 07:57:20;;;;;;;1.70;1.17;;;27.10;99.90;;;;;;5132580;28;20407;-60
2023/08/22 07:59:47;;;;;;;2.70;1.00;;;27.10;99.90;;;;;;5132202;28;20729;-61
2023/08/22 08:02:14;;;;;;;1.30;1.00;;;27.20;99.90;;;;;;5131987;28;20426;-61
2023/08/22 08:04:42;;;;;;;1.10;1.00;;;27.30;96.60;;;;;;5133333;28;20422;-61
2023/08/22 08:07:09;;;;;;;2.10;1.00;;;27.50;1.00;;;;;;5133754;28;20848;-60
2023/08/22 08:09:36;;;;;;;1.10;0.90;;;27.50;1.00;;;;;;5134803;28;20403;-61
2023/08/22 08:12:03;;;;;;;1.40;1.10;;;27.50;1.00;;;;;;5134312;28;20426;-61
2023/08/22 08:14:33;;;;;;;1.40;1.00;;;27.60;1.00;;;;;;5131930;28;20418;-61
2023/08/22 08:17:00;;;;;;;1.70;1.10;;;27.70;1.00;;;;;;5131749;28;20426;-61
2023/08/22 08:19:28;;;;;;;1.80;1.10;;;27.70;1.00;;;;;;5136563;27;20432;-60
2023/08/22 08:21:56;;;;;;;1.83;1.00;;;27.80;1.00;;;;;;5137481;27;20416;-61
2023/08/22 08:24:23;;;;;;;1.70;1.00;;;27.80;1.00;;;;;;5124970;27;20436;-61
2023/08/22 08:26:50;;;;;;;1.40;1.00;;;27.90;1.00;;;;;;5133773;27;20734;-62
2023/08/22 08:29:18;;;;;;;1.98;1.10;;;28.10;1.00;;;;;;5135833;27;20533;-61
2023/08/22 08:31:47;;;;;;;1.50;0.90;;;28.10;1.00;;;;;;5126456;27;20860;-62
2023/08/22 08:34:14;;;;;;;2.50;0.90;;;28.20;1.00;;;;;;5126059;27;20433;-62
2023/08/22 08:36:41;;;;;;;1.98;1.00;;;28.30;99.90;;;;;;5156008;27;20421;-61
2023/08/22 08:39:08;;;;;;;2.85;0.90;;;28.30;99.90;;;;;;5156394;27;20425;-61
2023/08/22 08:41:40;;;;;;;2.13;1.00;;;28.30;99.90;;;;;;5156181;27;20693;-61
2023/08/22 08:44:08;;;;;;;1.48;1.00;;;28.20;99.90;;;;;;5157162;27;20409;-62
2023/08/22 08:46:36;;;;;;;1.75;1.00;;;28.30;99.90;;;;;;5144393;27;20443;-61
2023/08/22 08:49:06;;;;;;;2.20;1.00;;;28.40;99.90;;;;;;5155646;27;20417;-61
2023/08/22 08:51:35;;;;;;;1.48;1.00;;;28.40;99.90;;;;;;5157239;27;20420;-62
2023/08/22 08:54:03;;;;;;;1.80;1.10;;;28.40;99.90;;;;;;5154526;27;20420;-61
2023/08/22 08:56:30;;;;;;;1.80;1.00;;;28.50;99.90;;;;;;5157283;27;20424;-61
2023/08/22 08:58:57;;;;;;;1.50;0.90;;;28.60;99.90;;;;;;5157014;27;20429;-62
2023/08/22 09:01:25;;;;;;;1.80;1.00;;;28.70;99.90;;;;;;5155617;27;20589;-62
2023/08/22 09:03:53;;;;;;;1.52;1.05;;;28.90;99.90;;;;;;5154492;27;20409;-61
2023/08/22 09:06:21;;;;;;;1.30;1.10;;;28.90;99.90;;;;;;5154522;27;20419;-63
2023/08/22 09:09:03;;;;;;;1.70;1.00;;;29.00;99.90;;;;;;5155839;27;20421;-62
2023/08/22 09:11:31;;;;;;;1.30;1.00;;;29.10;99.90;;;;;;5155022;27;20497;-63
2023/08/22 09:13:58;;;;;;;1.75;1.10;;;29.20;99.90;;;;;;5154269;27;20427;-63
2023/08/22 09:16:26;;;;;;;1.20;1.00;;;29.20;99.90;;;;;;5155504;27;20499;-63
2023/08/22 09:18:53;;;;;;;1.70;1.00;;;29.30;99.90;;;;;;5154945;27;20743;-63
2023/08/22 09:21:22;;;;;;;1.40;1.05;;;29.30;99.90;;;;;;5154952;27;20716;-64
2023/08/22 09:23:49;;;;;;;1.27;1.00;;;29.30;99.90;;;;;;5155557;27;20423;-63
2023/08/22 09:26:21;;;;;;;1.40;1.10;;;29.40;99.90;;;;;;5154947;27;20747;-63
2023/08/22 09:28:49;;;;;;;1.60;1.10;;;29.50;99.90;;;;;;5156781;27;20409;-64
2023/08/22 09:31:23;;;;;;;1.40;1.10;;;29.50;99.90;;;;;;5153300;27;20483;-63
2023/08/22 09:33:51;;;;;;;1.77;1.10;;;29.70;99.90;;;;;;5154946;27;20558;-63
2023/08/22 09:36:20;;;;;;;2.35;1.10;;;29.90;99.90;;;;;;5156079;27;20835;-64
2023/08/22 09:38:55;;;;;;;2.40;1.00;;;30.10;99.90;;;;;;5156535;27;20420;-64
2023/08/22 09:41:23;;;;;;;1.30;1.10;;;30.10;99.90;;;;;;5156622;27;20823;-65
2023/08/22 09:43:54;;;;;;;1.67;1.00;;;30.20;99.90;;;;;;5157396;27;20481;-65
2023/08/22 09:46:22;;;;;;;1.40;1.10;;;30.40;92.00;;;;;;5157166;27;20417;-65
2023/08/22 09:48:50;;;;;;;1.70;1.03;;;30.50;70.00;;;;;;5156037;27;20405;-64
2023/08/22 09:51:20;;;;;;;1.48;1.10;;;30.60;39.60;;;;;;5156311;27;20442;-64
2023/08/22 09:53:50;;;;;;;1.80;1.20;;;30.60;27.00;;;;;;5156773;27;20784;-64
2023/08/22 09:56:21;;;;;;;1.30;1.10;;;30.60;18.50;;;;;;5156200;27;20420;-64
2023/08/22 09:58:49;;;;;;;1.30;1.02;;;30.60;17.50;;;;;;5155459;27;20428;-65
2023/08/22 10:01:17;;;;;;;1.80;1.00;;;31.00;6.00;;;;;;5153429;27;20491;-65
2023/08/22 10:03:44;;;;;;;1.30;1.20;;;31.10;1.00;;;;;;5155571;27;20409;-65
2023/08/22 10:06:13;;;;;;;1.98;1.00;;;31.40;1.00;;;;;;5155451;27;20780;-64
2023/08/22 10:08:40;;;;;;;1.20;1.00;;;31.60;1.00;;;;;;5156302;27;20724;-65
2023/08/22 10:11:08;;;;;;;2.28;1.08;;;31.80;1.00;;;;;;5155270;27;20439;-64
2023/08/22 10:13:38;;;;;;;1.33;1.15;;;31.70;1.00;;;;;;5154060;27;20413;-64
2023/08/22 10:16:06;;;;;;;1.90;1.00;;;31.50;1.00;;;;;;5152721;27;20405;-64
2023/08/22 10:18:33;;;;;;;1.77;0.90;;;31.50;1.00;;;;;;5155150;27;20599;-65
2023/08/22 10:21:00;;;;;;;1.70;1.00;;;31.60;1.00;;;;;;5155074;27;20412;-66
2023/08/22 10:23:55;;;;;;;1.83;1.00;;;31.90;1.00;;;;;;5154468;27;20475;-66
2023/08/22 10:26:26;;;;;;;1.70;1.00;;;32.20;1.00;;;;;;5155566;27;20460;-68
2023/08/22 10:29:16;;;;;;;2.53;1.00;;;32.30;1.00;;;;;;5155078;27;20412;-69
2023/08/22 10:32:17;;;;;;;1.30;1.00;;;32.20;1.00;;;;;;5154118;27;20427;-68
2023/08/22 10:35:26;;;;;;;1.80;0.90;;;32.40;1.00;;;;;;5150882;27;20748;-69
2023/08/22 10:37:54;;;;;;;1.00;0.90;;;32.70;1.00;;;;;;5071249;28;20415;-68
2023/08/22 10:40:28;;;;;;;1.20;1.00;;;33.10;1.00;;;;;;5069605;28;20435;-68
2023/08/22 10:43:12;;;;;;;2.20;0.90;;;33.40;1.00;;;;;;5117060;27;20746;-68
2023/08/22 10:45:55;;;;;;;1.50;0.90;;;33.20;1.00;;;;;;5153877;27;20456;-69
2023/08/22 10:48:23;;;;;;;1.33;1.00;;;33.00;1.00;;;;;;5152875;27;20417;-68
2023/08/22 10:50:51;;;;;;;2.60;1.00;;;32.90;1.00;;;;;;5156196;27;20417;-68
2023/08/22 10:53:22;;;;;;;1.20;0.93;;;32.60;1.00;;;;;;5154020;27;20877;-68
2023/08/22 10:55:50;;;;;;;1.17;1.00;;;32.30;1.00;;;;;;5153984;27;20481;-69
2023/08/22 10:58:37;;;;;;;1.60;0.90;;;32.30;1.00;;;;;;5155048;27;20460;-68
2023/08/22 11:01:11;;;;;;;1.83;0.90;;;32.70;1.00;;;;;;5154741;27;20419;-68
2023/08/22 11:03:39;;;;;;;1.83;0.80;;;32.70;1.00;;;;;;5153974;27;20812;-68
2023/08/22 11:06:14;;;;;;;1.35;0.90;;;32.90;1.00;;;;;;5153364;27;20908;-68
2023/08/22 11:08:43;;;;;;;1.88;0.90;;;32.80;1.00;;;;;;5155115;27;20417;-68
2023/08/22 11:11:12;;;;;;;1.80;0.90;;;33.20;1.00;;;;;;5154747;27;20488;-67
2023/08/22 11:13:40;;;;;;;2.60;0.90;;;33.40;1.00;;;;;;5154714;27;20709;-68
2023/08/22 11:16:13;;;;;;;3.58;1.00;;;32.90;1.00;;;;;;5153512;27;20709;-67
2023/08/22 11:18:41;;;;;;;1.30;0.95;;;33.10;1.00;;;;;;5154627;27;20409;-64
2023/08/22 11:21:10;;;;;;;1.30;0.90;;;33.30;1.00;;;;;;5153686;27;20739;-66
2023/08/22 11:23:37;;;;;;;1.30;1.00;;;33.20;1.00;;;;;;5154755;27;20420;-66
2023/08/22 11:26:08;;;;;;;1.35;1.00;;;33.00;1.00;;;;;;5153492;27;20852;-68
2023/08/22 11:28:36;;;;;;;1.10;1.00;;;33.00;1.00;;;;;;5153099;27;20439;-67
2023/08/22 11:31:05;;;;;;;1.45;0.90;;;32.80;1.00;;;;;;5155433;27;20408;-65
2023/08/22 11:33:45;;;;;;;1.70;1.10;;;32.80;1.00;;;;;;5154496;27;20413;-66
2023/08/22 11:36:12;;;;;;;1.50;1.00;;;32.70;1.00;;;;;;5153908;27;20712;-65
2023/08/22 11:38:42;;;;;;;1.27;1.10;;;32.60;1.00;;;;;;5154044;27;20417;-65
2023/08/22 11:41:10;;;;;;;1.05;0.90;;;32.70;1.00;;;;;;5145219;27;20458;-65
2023/08/22 11:43:45;;;;;;;1.13;1.00;;;33.00;1.00;;;;;;5131540;28;20421;-65
2023/08/22 11:46:12;;;;;;;1.90;1.00;;;33.30;1.00;;;;;;5133351;28;20422;-65
2023/08/22 11:48:43;;;;;;;1.30;0.80;;;33.50;1.00;;;;;;5133509;28;20442;-65
2023/08/22 11:51:18;;;;;;;1.80;0.90;;;33.90;1.00;;;;;;5134172;28;20428;-66
2023/08/22 11:53:46;;;;;;;1.30;0.90;;;33.90;1.00;;;;;;5134284;27;20487;-66
2023/08/22 11:56:14;;;;;;;1.37;0.90;;;33.80;1.00;;;;;;5137057;27;20418;-66
2023/08/22 11:58:45;;;;;;;1.10;0.90;;;34.00;1.00;;;;;;5136963;27;20468;-66
2023/08/22 12:01:12;;;;;;;1.90;0.90;;;34.00;1.00;;;;;;5137397;27;20846;-67
2023/08/22 12:03:43;;;;;;;1.10;1.00;;;34.00;1.00;;;;;;5137896;27;20519;-67
2023/08/22 12:06:15;;;;;;;1.10;0.90;;;34.10;1.00;;;;;;5137697;27;20483;-66
2023/08/22 12:08:43;;;;;;;1.42;0.85;;;34.20;1.00;;;;;;5138286;27;20421;-66
2023/08/22 12:11:24;;;;;;;1.20;0.90;;;34.30;1.00;;;;;;5136810;27;20420;-66
2023/08/22 12:13:52;;;;;;;1.20;0.90;;;34.30;1.00;;;;;;5136000;27;20483;-66
2023/08/22 12:16:19;;;;;;;1.05;0.80;;;34.60;1.00;;;;;;5138225;27;20489;-67
2023/08/22 12:18:47;;;;;;;1.50;0.80;;;35.00;1.00;;;;;;5138112;27;20406;-67
2023/08/22 12:21:15;;;;;;;0.90;0.80;;;35.20;1.00;;;;;;5138110;27;20458;-66
2023/08/22 12:23:43;;;;;;;1.80;0.98;;;35.30;1.00;;;;;;5137028;27;20410;-65
2023/08/22 12:26:10;;;;;;;1.20;0.90;;;34.00;1.00;;;;;;5136380;27;20422;-67
2023/08/22 12:28:37;;;;;;;1.00;0.80;;;33.50;1.00;;;;;;5135740;27;20419;-66
2023/08/22 12:31:04;;;;;;;1.08;0.80;;;33.60;1.00;;;;;;5137728;27;20509;-65
2023/08/22 12:33:31;;;;;;;1.20;0.70;;;33.50;1.00;;;;;;5137064;27;20418;-66
2023/08/22 12:35:59;;;;;;;0.90;0.80;;;33.70;1.00;;;;;;5136400;27;20418;-66
2023/08/22 12:38:27;;;;;;;1.00;0.70;;;33.70;1.00;;;;;;5137317;27;20418;-66
2023/08/22 12:40:55;;;;;;;1.60;0.90;;;33.60;1.00;;;;;;5137365;27;20485;-66
2023/08/22 12:43:22;;;;;;;1.20;0.90;;;33.50;1.00;;;;;;5136803;27;20717;-67
2023/08/22 12:45:49;;;;;;;0.90;0.80;;;33.50;1.00;;;;;;5136529;27;20411;-66
2023/08/22 12:48:16;;;;;;;1.30;0.80;;;33.30;1.00;;;;;;5136131;27;20780;-67
2023/08/22 12:50:43;;;;;;;1.00;0.80;;;33.30;1.00;;;;;;5136540;27;20425;-66
2023/08/22 12:53:11;;;;;;;1.65;0.73;;;33.30;1.00;;;;;;5137338;27;20430;-67
2023/08/22 12:55:41;;;;;;;0.98;0.80;;;33.40;1.00;;;;;;5137397;27;20426;-66
2023/08/22 12:58:09;;;;;;;1.20;0.80;;;33.60;1.00;;;;;;5136422;27;20730;-67
2023/08/22 13:00:36;;;;;;;1.10;0.80;;;33.50;1.00;;;;;;5136213;27;20426;-64